首页
METAR-TAF:

METAR-TAF

机场 :

波羅克瓦尼國際機場

波羅克瓦尼, 南非共和國

纬度: 23-50-43S, 经度: 29-27-31E, 海拔: 1242米

当前天气观测

该预报发布于22分钟前的17:00 UTC
风速6节,风向
温度 16°C
湿度 20%
气压 1025 hPa
能见度10公里或以上
1500米以下无云,无积雨云

METAR: FAPP 171700Z 10006KT CAVOK 16/M07 Q1025 NOSIG

时间: 19:22 (17:22 UTC)

预报

该预报发布于8小时和22分钟前的09:00 UTC
预报有效从17日的 10点(UTC)到 17日的 18点(UTC)
风速3节,风向多变
能见度10公里或以上
1500米以下无云,无积雨云

TAF: FAPP 170900Z 1710/1718 VRB03KT CAVOK TX27/1712Z TN14/1718Z

超过4000个机场的气象观测和天气预报(METAR&TAF报告)。

可查询的气象台以黄色和红色小点在地图上表示。

将鼠标移到小点上方,可查看气象台名称。

然后点击查看天气观测和预报。

如需切换地图:点击带黑十字的绿色按钮放大地图;点击带横线的绿色按钮缩小地图;或者点击绿色箭头查看邻近地区的地图。


METAR-TAF: